createdAt,value
2019-05-01T00:01:14.198Z,99.90
2019-05-01T00:06:26.481Z,99.90
2019-05-01T00:11:33.805Z,99.90
2019-05-01T00:16:41.665Z,99.90
2019-05-01T00:21:49.050Z,99.90
2019-05-01T00:26:56.352Z,99.90
2019-05-01T00:32:03.687Z,99.90
2019-05-01T00:37:10.911Z,99.90
2019-05-01T00:42:18.126Z,99.90
2019-05-01T00:47:25.458Z,99.90
2019-05-01T00:52:32.754Z,99.90
2019-05-01T00:57:44.785Z,99.90
2019-05-01T01:02:53.927Z,99.90
2019-05-01T01:08:01.208Z,99.90
2019-05-01T01:13:08.633Z,99.90
2019-05-01T01:18:16.027Z,99.90
2019-05-01T01:23:23.461Z,99.90
2019-05-01T01:28:30.971Z,99.90
2019-05-01T01:33:39.460Z,99.90
2019-05-01T01:38:46.860Z,99.90
2019-05-01T01:44:13.113Z,99.90
2019-05-01T01:49:20.679Z,99.90
2019-05-01T01:54:28.693Z,99.90
2019-05-01T01:59:36.130Z,99.90
2019-05-01T02:05:04.232Z,99.90
2019-05-01T02:10:12.330Z,99.90
2019-05-01T02:15:19.766Z,99.90
2019-05-01T02:20:27.180Z,99.90
2019-05-01T02:25:36.895Z,99.90
2019-05-01T02:30:47.292Z,99.90
2019-05-01T02:35:54.804Z,99.90
2019-05-01T02:41:04.410Z,99.90
2019-05-01T02:46:14.895Z,99.90
2019-05-01T02:51:24.707Z,99.90
2019-05-01T02:56:42.010Z,99.90
2019-05-01T03:01:49.986Z,99.90
2019-05-01T03:06:57.976Z,99.90
2019-05-01T03:12:07.059Z,99.90
2019-05-01T03:17:34.921Z,99.90
2019-05-01T03:23:04.370Z,99.90
2019-05-01T03:28:12.400Z,99.90
2019-05-01T03:33:20.221Z,99.90
2019-05-01T03:38:28.409Z,99.90
2019-05-01T03:43:37.408Z,99.90
2019-05-01T03:48:45.336Z,99.90
2019-05-01T03:53:52.919Z,99.90
2019-05-01T03:59:01.208Z,99.90
2019-05-01T04:04:12.952Z,99.90
2019-05-01T04:09:20.695Z,99.90
2019-05-01T04:14:28.387Z,99.90
2019-05-01T04:19:36.384Z,99.90
2019-05-01T04:24:45.066Z,99.90
2019-05-01T04:29:59.103Z,99.90
2019-05-01T04:35:22.490Z,99.90
2019-05-01T04:40:29.992Z,99.90
2019-05-01T04:45:37.608Z,99.90
2019-05-01T04:50:45.291Z,99.90
2019-05-01T04:55:53.751Z,99.90
2019-05-01T05:01:01.350Z,99.90
2019-05-01T05:06:08.927Z,99.90
2019-05-01T05:11:23.066Z,99.90
2019-05-01T05:16:53.565Z,99.90
2019-05-01T05:22:01.441Z,99.90
2019-05-01T05:27:09.514Z,99.90
2019-05-01T05:32:20.260Z,99.90
2019-05-01T05:37:35.143Z,99.90
2019-05-01T05:42:42.733Z,99.90
2019-05-01T05:47:50.364Z,99.90
2019-05-01T05:53:05.386Z,99.90
2019-05-01T05:58:29.860Z,99.90
2019-05-01T06:04:17.044Z,99.90
2019-05-01T06:09:36.963Z,99.90
2019-05-01T06:15:06.430Z,99.90
2019-05-01T06:20:27.702Z,99.90
2019-05-01T06:25:39.783Z,99.90
2019-05-01T06:30:48.852Z,99.90
2019-05-01T06:35:56.261Z,99.90
2019-05-01T06:41:03.661Z,99.90
2019-05-01T06:46:42.721Z,99.90
2019-05-01T06:51:53.715Z,99.90
2019-05-01T06:57:05.191Z,99.90
2019-05-01T07:02:16.221Z,99.90
2019-05-01T07:07:25.907Z,99.90
2019-05-01T07:12:36.226Z,99.90
2019-05-01T07:17:47.383Z,99.90
2019-05-01T07:22:53.248Z,99.90
2019-05-01T07:28:00.638Z,99.90
2019-05-01T07:33:12.048Z,99.90
2019-05-01T07:38:17.689Z,99.90
2019-05-01T07:43:44.105Z,99.90
2019-05-01T07:48:51.975Z,99.90
2019-05-01T07:54:04.119Z,99.90
2019-05-01T07:59:10.294Z,99.90
2019-05-01T08:04:18.502Z,99.90
2019-05-01T08:09:26.534Z,99.90
2019-05-01T08:14:33.793Z,99.90
2019-05-01T08:19:49.931Z,99.90
2019-05-01T08:24:58.730Z,99.90
2019-05-01T08:30:29.396Z,99.90
2019-05-01T08:35:37.641Z,99.90
2019-05-01T08:40:45.152Z,99.90
2019-05-01T08:46:17.786Z,99.90
2019-05-01T08:51:30.029Z,99.60
2019-05-01T08:56:35.526Z,99.50
2019-05-01T09:01:45.805Z,99.90
2019-05-01T09:06:52.067Z,99.90
2019-05-01T09:11:59.445Z,99.50
2019-05-01T09:17:06.925Z,98.50
2019-05-01T09:22:15.302Z,98.30
2019-05-01T09:28:04.167Z,98.20
2019-05-01T09:33:10.073Z,98.20
2019-05-01T09:38:17.504Z,99.50
2019-05-01T09:43:24.731Z,99.90
2019-05-01T09:48:32.278Z,99.80
2019-05-01T09:54:05.584Z,97.40
2019-05-01T09:59:17.366Z,94.50
2019-05-01T10:04:25.305Z,94.30
2019-05-01T10:09:31.979Z,95.10
2019-05-01T10:14:39.892Z,95.10
2019-05-01T10:19:49.991Z,94.40
2019-05-01T10:24:56.242Z,94.90
2019-05-01T10:30:16.105Z,95.80
2019-05-01T10:35:48.544Z,96.90
2019-05-01T10:40:56.178Z,99.70
2019-05-01T10:46:03.678Z,99.90
2019-05-01T10:51:11.215Z,99.90
2019-05-01T10:56:18.737Z,98.60
2019-05-01T11:01:36.845Z,90.80
2019-05-01T11:06:44.203Z,83.60
2019-05-01T11:11:52.569Z,70.70
2019-05-01T11:17:00.225Z,52.60
2019-05-01T11:22:07.510Z,52.80
2019-05-01T11:27:15.828Z,51.40
2019-05-01T11:32:35.645Z,47.70
2019-05-01T11:37:54.675Z,46.90
2019-05-01T11:43:04.153Z,48.00
2019-05-01T11:48:11.597Z,48.10
2019-05-01T11:53:18.807Z,43.30
2019-05-01T11:58:26.306Z,45.40
2019-05-01T12:03:35.072Z,43.80
2019-05-01T12:08:42.344Z,45.00
2019-05-01T12:13:49.661Z,41.70
2019-05-01T12:18:56.981Z,42.50
2019-05-01T12:24:04.322Z,39.90
2019-05-01T12:29:11.483Z,43.80
2019-05-01T12:34:18.794Z,48.20
2019-05-01T12:39:26.261Z,53.40
2019-05-01T12:44:33.618Z,62.40
2019-05-01T12:49:41.319Z,64.60
2019-05-01T12:54:55.090Z,64.20
2019-05-01T13:00:08.905Z,68.30
2019-05-01T13:05:11.967Z,70.30
2019-05-01T13:10:19.639Z,74.00
2019-05-01T13:15:27.300Z,77.30
2019-05-01T13:20:35.048Z,82.30
2019-05-01T13:25:43.188Z,82.90
2019-05-01T13:31:03.566Z,79.70
2019-05-01T13:36:11.116Z,75.40
2019-05-01T13:41:20.045Z,70.20
2019-05-01T13:46:28.995Z,65.40
2019-05-01T13:51:36.618Z,70.10
2019-05-01T13:56:44.285Z,68.80
2019-05-01T14:01:51.973Z,71.50
2019-05-01T14:07:00.436Z,69.40
2019-05-01T14:12:08.137Z,72.40
2019-05-01T14:17:15.603Z,69.30
2019-05-01T14:22:48.281Z,54.30
2019-05-01T14:27:56.031Z,43.70
2019-05-01T14:33:03.406Z,46.40
2019-05-01T14:38:10.798Z,43.60
2019-05-01T14:43:18.164Z,43.20
2019-05-01T14:48:25.377Z,43.00
2019-05-01T14:53:33.017Z,43.00
2019-05-01T14:58:40.300Z,46.00
2019-05-01T15:03:47.630Z,46.20
2019-05-01T15:08:55.020Z,46.30
2019-05-01T15:14:23.915Z,47.80
2019-05-01T15:19:33.680Z,46.50
2019-05-01T15:24:41.364Z,48.60
2019-05-01T15:29:48.751Z,48.90
2019-05-01T15:34:56.143Z,52.40
2019-05-01T15:40:08.434Z,54.20
2019-05-01T15:45:15.934Z,55.60
2019-05-01T15:50:23.329Z,57.00
2019-05-01T15:55:30.703Z,61.30
2019-05-01T16:00:38.072Z,60.00
2019-05-01T16:05:45.923Z,62.10
2019-05-01T16:11:03.185Z,62.30
2019-05-01T16:16:10.441Z,67.10
2019-05-01T16:21:17.790Z,70.30
2019-05-01T16:26:25.069Z,72.80
2019-05-01T16:31:32.487Z,72.80
2019-05-01T16:36:39.915Z,74.80
2019-05-01T16:41:47.270Z,75.30
2019-05-01T16:46:54.590Z,74.40
2019-05-01T16:52:02.074Z,78.40
2019-05-01T16:57:13.247Z,81.90
2019-05-01T17:02:30.877Z,87.10
2019-05-01T17:08:00.511Z,85.80
2019-05-01T17:13:10.412Z,90.10
2019-05-01T17:18:20.912Z,88.80
2019-05-01T17:23:29.419Z,93.70
2019-05-01T17:28:37.296Z,92.90
2019-05-01T17:33:45.820Z,94.60
2019-05-01T17:38:54.542Z,94.90
2019-05-01T17:44:02.304Z,95.00
2019-05-01T17:49:10.788Z,95.90
2019-05-01T17:54:19.044Z,96.40
2019-05-01T17:59:26.791Z,97.00
2019-05-01T18:05:08.244Z,97.40
2019-05-01T18:10:16.274Z,97.90
2019-05-01T18:15:24.032Z,98.40
2019-05-01T18:20:31.938Z,99.00
2019-05-01T18:25:49.348Z,99.20
2019-05-01T18:30:58.304Z,99.70
2019-05-01T18:36:07.316Z,99.90
2019-05-01T18:41:21.402Z,99.90
2019-05-01T18:46:29.282Z,99.90
2019-05-01T18:51:40.653Z,99.90
2019-05-01T18:56:46.525Z,99.90
2019-05-01T19:01:54.831Z,99.90
2019-05-01T19:07:02.734Z,99.90
2019-05-01T19:12:12.271Z,99.90
2019-05-01T19:17:20.080Z,99.90
2019-05-01T19:22:27.924Z,99.90
2019-05-01T19:27:35.591Z,99.90
2019-05-01T19:32:43.658Z,99.90
2019-05-01T19:37:52.917Z,99.90
2019-05-01T19:43:00.966Z,99.90
2019-05-01T19:48:08.928Z,99.90
2019-05-01T19:53:16.739Z,99.90
2019-05-01T19:58:24.591Z,99.90
2019-05-01T20:03:36.103Z,99.90
2019-05-01T20:08:43.414Z,99.90
2019-05-01T20:13:51.429Z,99.90
2019-05-01T20:18:59.353Z,99.90
2019-05-01T20:24:09.447Z,99.90
2019-05-01T20:29:17.835Z,99.90
2019-05-01T20:34:25.451Z,99.90
2019-05-01T20:39:46.674Z,99.90
2019-05-01T20:45:04.476Z,99.90
2019-05-01T20:50:04.246Z,99.90
2019-05-01T20:55:11.640Z,99.90
2019-05-01T21:00:21.108Z,99.90
2019-05-01T21:05:36.626Z,99.90
2019-05-01T21:10:52.101Z,99.90
2019-05-01T21:16:01.719Z,99.90
2019-05-01T21:21:08.626Z,99.90
2019-05-01T21:26:16.217Z,99.90
2019-05-01T21:31:24.108Z,99.90
2019-05-01T21:36:32.610Z,99.90
2019-05-01T21:41:39.869Z,99.90
2019-05-01T21:46:47.176Z,99.90
2019-05-01T21:51:54.349Z,99.90
2019-05-01T21:57:01.616Z,99.90
2019-05-01T22:02:10.138Z,99.90
2019-05-01T22:07:18.166Z,99.90
2019-05-01T22:12:25.526Z,99.90
2019-05-01T22:17:59.420Z,99.90
2019-05-01T22:23:11.953Z,99.90
2019-05-01T22:28:25.187Z,99.90
2019-05-01T22:33:32.820Z,99.90
2019-05-01T22:38:40.078Z,99.90
2019-05-01T22:43:47.332Z,99.90
2019-05-01T22:48:54.700Z,99.90
2019-05-01T22:54:01.944Z,99.90
2019-05-01T22:59:10.924Z,99.90
2019-05-01T23:04:18.999Z,99.90
2019-05-01T23:09:30.182Z,99.90
2019-05-01T23:14:37.270Z,99.90
2019-05-01T23:19:44.659Z,99.90
2019-05-01T23:24:52.038Z,99.90
2019-05-01T23:29:59.399Z,99.90
2019-05-01T23:35:07.322Z,99.90
2019-05-01T23:40:15.735Z,99.90
2019-05-01T23:45:24.183Z,99.90
2019-05-01T23:50:31.465Z,99.90
2019-05-01T23:55:38.662Z,99.90
